Time;durP1;ratioP1;P1;durP2;ratioP2;P2;SDS_P1;SDS_P2;PMS_P1;PMS_P2;Temp;Humidity;BMP_temperature;BMP_pressure;BME280_temperature;BME280_humidity;BME280_pressure;Samples;Min_cycle;Max_cycle;Signal;HPM_P1;HPM_P2
2021/07/21 00:01:45;;;;;;;11.53;8.50;;;15.10;99.90;;;;;;6232542;22;20159;-87
2021/07/21 00:04:11;;;;;;;10.03;8.73;;;15.10;99.90;;;;;;6233415;22;20245;-87
2021/07/21 00:06:37;;;;;;;11.73;8.47;;;15.10;99.90;;;;;;6233196;22;20520;-87
2021/07/21 00:09:04;;;;;;;10.70;8.97;;;15.10;99.90;;;;;;6233699;22;20185;-87
2021/07/21 00:14:19;;;;;;;10.23;8.90;;;15.10;99.90;;;;;;6264080;22;20387;-87
2021/07/21 00:16:52;;;;;;;10.20;9.10;;;15.10;99.90;;;;;;6234914;22;20529;-88
2021/07/21 00:22:02;;;;;;;10.63;8.40;;;15.10;99.90;;;;;;6263483;22;20693;-87
2021/07/21 00:24:28;;;;;;;12.70;8.90;;;15.10;99.90;;;;;;6236892;22;20381;-88
2021/07/21 00:26:54;;;;;;;8.83;7.93;;;15.20;99.90;;;;;;6236397;22;20438;-88
2021/07/21 00:29:20;;;;;;;9.93;8.80;;;15.20;99.90;;;;;;6235745;22;20159;-87
2021/07/21 00:31:45;;;;;;;11.30;9.37;;;15.20;99.90;;;;;;6235311;22;20169;-88
2021/07/21 00:34:11;;;;;;;11.20;8.90;;;15.10;99.90;;;;;;6234416;22;20166;-88
2021/07/21 00:36:41;;;;;;;10.20;9.03;;;15.00;99.90;;;;;;6235961;22;20162;-87
2021/07/21 00:39:07;;;;;;;11.67;8.60;;;15.00;99.90;;;;;;6235727;22;20223;-87
2021/07/21 00:41:33;;;;;;;10.67;8.97;;;15.00;99.90;;;;;;6235967;22;20832;-88
2021/07/21 00:44:00;;;;;;;10.40;8.67;;;15.00;99.90;;;;;;6236038;22;20232;-88
2021/07/21 00:46:26;;;;;;;21.20;9.67;;;14.90;99.90;;;;;;6234972;22;20158;-87
2021/07/21 00:48:53;;;;;;;11.70;9.20;;;14.90;99.90;;;;;;6235016;22;20424;-86
2021/07/21 00:51:22;;;;;;;10.50;8.80;;;15.00;99.90;;;;;;6235294;22;20170;-87
2021/07/21 00:53:48;;;;;;;12.23;9.40;;;15.10;99.90;;;;;;6236550;22;20436;-87
2021/07/21 00:56:15;;;;;;;10.50;9.40;;;15.00;99.90;;;;;;6235601;22;20974;-87
2021/07/21 00:58:41;;;;;;;12.37;9.47;;;15.00;99.90;;;;;;6234654;22;20608;-87
2021/07/21 01:01:07;;;;;;;12.40;9.73;;;14.90;99.90;;;;;;6235896;22;20892;-87
2021/07/21 01:03:33;;;;;;;12.23;9.67;;;14.90;99.90;;;;;;6236324;22;20412;-87
2021/07/21 01:06:00;;;;;;;11.23;9.53;;;14.80;99.90;;;;;;6235579;22;20354;-87
2021/07/21 01:08:33;;;;;;;12.80;9.40;;;14.90;99.90;;;;;;6235635;22;20451;-87
2021/07/21 01:11:11;;;;;;;11.00;9.60;;;14.90;99.90;;;;;;6235877;22;20396;-87
2021/07/21 01:13:53;;;;;;;13.23;9.40;;;14.80;99.90;;;;;;6236166;22;20444;-87
2021/07/21 01:16:22;;;;;;;11.87;10.60;;;14.80;99.90;;;;;;6236140;22;20917;-87
2021/07/21 01:19:12;;;;;;;11.70;9.07;;;14.70;99.90;;;;;;6234405;22;20440;-87
2021/07/21 01:22:03;;;;;;;11.27;9.80;;;14.80;99.90;;;;;;6234837;22;20910;-88
2021/07/21 01:24:53;;;;;;;10.50;9.40;;;14.80;99.90;;;;;;6236488;22;20405;-87
2021/07/21 01:27:22;;;;;;;10.50;9.40;;;14.80;99.90;;;;;;6234715;22;20433;-87
2021/07/21 01:29:52;;;;;;;14.00;9.50;;;14.80;99.90;;;;;;6235719;22;20408;-87
2021/07/21 01:32:24;;;;;;;11.77;9.73;;;14.80;99.90;;;;;;6262213;22;20443;-87
2021/07/21 01:34:54;;;;;;;12.30;10.10;;;14.80;99.90;;;;;;6233573;22;20397;-87
2021/07/21 01:37:24;;;;;;;12.20;9.60;;;14.80;99.90;;;;;;6261920;22;20517;-87
2021/07/21 01:40:00;;;;;;;12.83;9.70;;;14.80;99.90;;;;;;6238635;22;20408;-87
2021/07/21 01:42:27;;;;;;;11.37;10.17;;;14.80;99.90;;;;;;6237715;22;20409;-87
2021/07/21 01:44:55;;;;;;;12.40;9.70;;;14.80;99.90;;;;;;6238471;22;20527;-87
2021/07/21 01:47:33;;;;;;;13.37;10.23;;;14.80;99.90;;;;;;6235552;22;20389;-87
2021/07/21 01:50:01;;;;;;;13.57;10.57;;;14.80;99.90;;;;;;6236438;22;20393;-87
2021/07/21 01:52:28;;;;;;;11.17;10.07;;;14.70;99.90;;;;;;6236517;22;20898;-88
2021/07/21 01:54:56;;;;;;;13.10;11.17;;;14.60;99.90;;;;;;6238467;22;20474;-87
2021/07/21 01:57:28;;;;;;;12.80;10.80;;;14.60;99.90;;;;;;6237236;22;20511;-87
2021/07/21 01:59:55;;;;;;;12.10;10.87;;;14.60;99.90;;;;;;6237491;22;20401;-87
2021/07/21 02:02:24;;;;;;;11.93;10.50;;;14.50;99.90;;;;;;6238072;22;20388;-87
2021/07/21 02:04:51;;;;;;;11.53;10.33;;;14.50;99.90;;;;;;6237280;22;20396;-87
2021/07/21 02:07:26;;;;;;;14.80;11.13;;;14.40;99.90;;;;;;6238109;22;20391;-87
2021/07/21 02:09:52;;;;;;;14.30;11.50;;;14.40;99.90;;;;;;6236367;22;20426;-87
2021/07/21 02:12:19;;;;;;;17.17;11.43;;;14.40;99.90;;;;;;6237820;22;20939;-86
2021/07/21 02:14:47;;;;;;;15.30;12.43;;;14.40;99.90;;;;;;6236913;22;20393;-86
2021/07/21 02:17:13;;;;;;;12.47;11.17;;;14.40;99.90;;;;;;6237524;22;20437;-86
2021/07/21 02:19:45;;;;;;;11.80;10.60;;;14.40;99.90;;;;;;6236135;22;20540;-86
2021/07/21 02:22:16;;;;;;;13.30;11.13;;;14.30;99.90;;;;;;6238308;22;20381;-86
2021/07/21 02:24:44;;;;;;;14.80;11.20;;;14.30;99.90;;;;;;6238084;22;20397;-86
2021/07/21 02:27:10;;;;;;;11.30;10.10;;;14.30;99.90;;;;;;6236685;22;20502;-87
2021/07/21 02:29:36;;;;;;;12.87;10.60;;;14.30;99.90;;;;;;6238468;22;20400;-88
2021/07/21 02:32:09;;;;;;;12.70;11.23;;;14.30;99.90;;;;;;6237025;22;20664;-88
2021/07/21 02:34:43;;;;;;;13.50;10.93;;;14.30;99.90;;;;;;6236576;22;20216;-87
2021/07/21 02:37:12;;;;;;;12.73;9.77;;;14.20;99.90;;;;;;6237579;22;20506;-86
2021/07/21 02:39:38;;;;;;;11.80;10.33;;;14.20;99.90;;;;;;6237109;22;20401;-87
2021/07/21 02:42:12;;;;;;;11.90;10.13;;;14.20;99.90;;;;;;6237130;22;20416;-87
2021/07/21 02:44:41;;;;;;;12.63;10.87;;;14.20;99.90;;;;;;6237206;22;20166;-88
2021/07/21 02:47:07;;;;;;;11.10;9.73;;;14.20;99.90;;;;;;6259347;22;20393;-87
2021/07/21 02:49:34;;;;;;;13.20;11.37;;;14.20;99.90;;;;;;6237137;22;20447;-87
2021/07/21 02:52:00;;;;;;;14.90;11.43;;;14.20;99.90;;;;;;6237686;22;20400;-87
2021/07/21 02:54:32;;;;;;;13.63;10.73;;;14.20;99.90;;;;;;6237798;22;20393;-88
2021/07/21 02:57:07;;;;;;;12.10;10.13;;;14.10;99.90;;;;;;6236036;22;20190;-88
2021/07/21 02:59:50;;;;;;;25.60;22.80;;;14.00;99.90;;;;;;6237364;22;20475;-88
2021/07/21 03:02:23;;;;;;;15.37;10.90;;;14.00;99.90;;;;;;6237162;22;20408;-88
2021/07/21 03:04:57;;;;;;;14.50;10.93;;;14.00;99.90;;;;;;6264895;22;20395;-88
2021/07/21 03:07:24;;;;;;;12.80;10.40;;;13.90;99.90;;;;;;6235898;22;20412;-87
2021/07/21 03:09:52;;;;;;;13.90;10.57;;;13.90;99.90;;;;;;6237762;22;20941;-87
2021/07/21 03:12:28;;;;;;;17.17;10.97;;;14.00;99.90;;;;;;6237513;22;20482;-88
2021/07/21 03:14:55;;;;;;;11.60;10.03;;;14.10;99.90;;;;;;6237722;22;20454;-88
2021/07/21 03:17:23;;;;;;;13.17;10.30;;;14.20;99.90;;;;;;6237138;22;20807;-88
2021/07/21 03:19:52;;;;;;;11.23;10.03;;;14.10;99.90;;;;;;6237332;22;20397;-88
2021/07/21 03:22:26;;;;;;;13.43;10.70;;;14.10;99.90;;;;;;6237128;22;20739;-87
2021/07/21 03:24:53;;;;;;;16.53;10.50;;;14.10;99.90;;;;;;6236044;22;20407;-87
2021/07/21 03:27:23;;;;;;;12.50;10.03;;;14.00;99.90;;;;;;6237114;22;20718;-87
2021/07/21 03:29:51;;;;;;;15.87;10.60;;;14.00;99.90;;;;;;6238029;22;20424;-87
2021/07/21 03:32:21;;;;;;;15.20;10.60;;;13.90;99.90;;;;;;6236864;22;20381;-87
2021/07/21 03:34:47;;;;;;;11.90;10.17;;;13.90;99.90;;;;;;6237716;22;20889;-87
2021/07/21 03:37:16;;;;;;;12.77;11.43;;;13.80;99.90;;;;;;6237349;22;20961;-88
2021/07/21 03:39:43;;;;;;;13.03;10.47;;;13.80;99.90;;;;;;6236524;22;20396;-87
2021/07/21 03:42:15;;;;;;;13.43;10.50;;;13.70;99.90;;;;;;6237241;22;20428;-86
2021/07/21 03:44:42;;;;;;;14.03;11.07;;;13.70;99.90;;;;;;6237263;22;20745;-86
2021/07/21 03:47:08;;;;;;;12.50;10.67;;;13.70;99.90;;;;;;6238942;22;20455;-86
2021/07/21 03:49:36;;;;;;;13.77;10.50;;;13.80;99.90;;;;;;6239512;22;20754;-86
2021/07/21 03:52:02;;;;;;;11.90;10.30;;;13.80;99.90;;;;;;6262717;22;20388;-86
2021/07/21 03:54:28;;;;;;;13.83;11.03;;;13.70;99.90;;;;;;6234647;22;20397;-86
2021/07/21 03:56:55;;;;;;;11.70;10.50;;;13.70;99.90;;;;;;6238720;22;20415;-87
2021/07/21 03:59:23;;;;;;;14.90;10.80;;;13.80;99.90;;;;;;6238398;22;20502;-87
2021/07/21 04:01:54;;;;;;;12.47;10.87;;;13.80;99.90;;;;;;6237533;22;20389;-86
2021/07/21 04:04:26;;;;;;;12.70;9.73;;;13.80;99.90;;;;;;6238754;22;20404;-87
2021/07/21 04:06:53;;;;;;;14.47;11.20;;;13.70;99.90;;;;;;6238331;22;20821;-87
2021/07/21 04:09:22;;;;;;;12.60;9.60;;;13.70;99.90;;;;;;6237833;22;20448;-86
2021/07/21 04:11:55;;;;;;;12.23;10.30;;;13.80;99.90;;;;;;6237135;22;20472;-85
2021/07/21 04:14:22;;;;;;;14.70;11.23;;;13.90;99.90;;;;;;6238744;22;20720;-89
2021/07/21 04:17:02;;;;;;;17.90;11.50;;;13.80;99.90;;;;;;6237275;22;20389;-87
2021/07/21 04:19:28;;;;;;;12.53;11.07;;;13.90;99.90;;;;;;6237711;22;20396;-86
2021/07/21 04:21:55;;;;;;;13.33;10.07;;;14.00;99.90;;;;;;6238339;22;20444;-86
2021/07/21 04:24:26;;;;;;;17.33;11.20;;;13.90;99.90;;;;;;6263859;22;20780;-87
2021/07/21 04:26:56;;;;;;;15.53;12.17;;;13.90;99.90;;;;;;6238269;22;20443;-87
2021/07/21 04:29:25;;;;;;;12.70;10.87;;;13.80;99.90;;;;;;6238084;22;20397;-86
2021/07/21 04:31:54;;;;;;;17.43;12.17;;;13.80;99.90;;;;;;6238819;22;20393;-86
2021/07/21 04:34:21;;;;;;;12.57;10.40;;;13.80;99.90;;;;;;6238539;22;20424;-87
2021/07/21 04:36:51;;;;;;;13.60;11.27;;;13.90;99.90;;;;;;6238360;22;20388;-88
2021/07/21 04:39:19;;;;;;;18.27;12.00;;;13.90;99.90;;;;;;6237468;22;20397;-87
2021/07/21 04:41:55;;;;;;;13.53;11.20;;;14.00;99.90;;;;;;6236898;22;20558;-87
2021/07/21 04:44:28;;;;;;;11.90;10.63;;;14.10;99.90;;;;;;6238629;22;20400;-88
2021/07/21 04:47:06;;;;;;;11.47;10.03;;;14.20;99.90;;;;;;6239479;22;20401;-87
2021/07/21 04:50:05;;;;;;;12.80;10.77;;;14.40;99.90;;;;;;6264677;22;20396;-87
2021/07/21 04:52:37;;;;;;;14.67;11.27;;;14.50;99.90;;;;;;6263583;22;21267;-86
2021/07/21 04:55:50;;;;;;;;;;;;;;;;;;;;;
2021/07/21 12:01:06;;;;;;;12.90;10.63;;;28.30;87.10;;;;;;6295457;22;20435;-87
2021/07/21 12:04:09;;;;;;;13.43;12.03;;;27.70;90.70;;;;;;6264453;22;20834;-86
2021/07/21 12:06:42;;;;;;;11.10;10.10;;;27.70;86.10;;;;;;6244345;22;20874;-86
2021/07/21 12:09:24;;;;;;;11.97;10.87;;;27.50;85.80;;;;;;6264201;22;20383;-87
2021/07/21 12:22:18;;;;;;;11.93;10.93;;;26.40;87.70;;;;;;6278137;22;20380;-86
2021/07/21 12:25:02;;;;;;;13.57;12.27;;;26.60;88.40;;;;;;6242138;22;20404;-87
2021/07/21 12:28:25;;;;;;;12.33;11.13;;;27.30;90.70;;;;;;6291185;22;20461;-87
2021/07/21 12:31:24;;;;;;;;;;;;;;;;;;;;;
2021/07/21 12:34:43;;;;;;;13.37;12.17;;;27.80;86.00;;;;;;6294391;22;20473;-86
2021/07/21 12:37:37;;;;;;;;;;;;;;;;;;;;;
2021/07/21 12:43:18;;;;;;;;;;;;;;;;;;;;;
2021/07/21 12:46:02;;;;;;;;;;;;;;;;;;;;;
2021/07/21 12:48:45;;;;;;;11.73;10.70;;;28.00;91.70;;;;;;6257387;22;20866;-87
2021/07/21 12:51:23;;;;;;;13.23;12.03;;;28.00;88.70;;;;;;6294859;22;20746;-88
2021/07/21 12:53:58;;;;;;;12.40;10.80;;;28.00;90.20;;;;;;6265818;22;20400;-87
2021/07/21 12:56:31;;;;;;;13.17;11.97;;;28.30;90.00;;;;;;6293778;22;20411;-86
2021/07/21 12:59:14;;;;;;;14.33;12.00;;;28.20;89.70;;;;;;6266615;22;20732;-87
2021/07/21 13:01:41;;;;;;;12.73;11.50;;;28.40;85.80;;;;;;6293979;22;20419;-86
2021/07/21 13:04:15;;;;;;;12.63;11.47;;;28.80;85.80;;;;;;6294608;22;20387;-87
2021/07/21 13:06:42;;;;;;;14.17;12.60;;;28.90;85.70;;;;;;6293559;22;20516;-87
2021/07/21 13:09:10;;;;;;;13.27;12.07;;;28.90;83.60;;;;;;6267611;22;20424;-87
2021/07/21 13:11:38;;;;;;;12.53;11.23;;;28.50;86.20;;;;;;6294750;22;20379;-87
2021/07/21 13:14:08;;;;;;;14.17;12.73;;;28.10;84.60;;;;;;6264170;22;20391;-88
2021/07/21 13:16:40;;;;;;;12.73;11.43;;;28.40;87.50;;;;;;6291876;22;20406;-88
2021/07/21 13:19:16;;;;;;;12.30;11.10;;;28.40;87.40;;;;;;6261253;22;20836;-87
2021/07/21 13:25:36;;;;;;;12.37;11.23;;;28.70;86.60;;;;;;6290544;22;20394;-87
2021/07/21 13:28:31;;;;;;;13.50;11.33;;;29.20;78.90;;;;;;6207143;22;20534;-87
2021/07/21 13:31:19;;;;;;;11.90;10.70;;;28.90;80.00;;;;;;6261831;22;20421;-88
2021/07/21 13:33:49;;;;;;;12.37;11.23;;;28.60;81.10;;;;;;6263014;22;20925;-88
2021/07/21 13:36:19;;;;;;;12.40;11.20;;;28.90;79.70;;;;;;6262715;22;20403;-87
2021/07/21 13:38:51;;;;;;;12.60;11.50;;;29.10;82.20;;;;;;6290974;22;20431;-88
2021/07/21 13:41:27;;;;;;;12.50;11.20;;;29.90;74.50;;;;;;6290034;22;20676;-87
2021/07/21 13:43:56;;;;;;;12.20;11.10;;;30.50;74.00;;;;;;6263702;22;20407;-89
2021/07/21 13:46:36;;;;;;;13.17;11.67;;;32.10;74.60;;;;;;6261131;22;20615;-87
2021/07/21 13:49:10;;;;;;;11.53;10.50;;;32.30;69.10;;;;;;6263083;22;20407;-86
2021/07/21 13:51:46;;;;;;;12.03;10.93;;;31.30;67.50;;;;;;6263139;22;20445;-87
2021/07/21 13:54:17;;;;;;;12.67;11.33;;;32.50;68.30;;;;;;6263386;22;20411;-87
2021/07/21 13:56:45;;;;;;;12.43;11.10;;;35.20;63.40;;;;;;6263904;22;20399;-87
2021/07/21 13:59:24;;;;;;;12.60;11.33;;;36.90;57.20;;;;;;6262576;22;20439;-88
2021/07/21 14:01:52;;;;;;;11.57;10.57;;;38.20;53.60;;;;;;6291723;22;20888;-87
2021/07/21 14:04:19;;;;;;;11.67;10.47;;;37.30;50.50;;;;;;6263723;22;20396;-87
2021/07/21 14:06:47;;;;;;;11.57;10.00;;;35.90;50.80;;;;;;6264308;22;20411;-87
2021/07/21 14:09:17;;;;;;;12.27;11.13;;;37.70;50.30;;;;;;6291453;22;20877;-87
2021/07/21 14:12:36;;;;;;;11.73;10.63;;;36.30;48.20;;;;;;6262331;22;20387;-87
2021/07/21 14:15:04;;;;;;;12.37;11.13;;;33.20;52.10;;;;;;6291338;22;20383;-87
2021/07/21 14:17:32;;;;;;;12.50;11.40;;;34.40;54.30;;;;;;6262865;22;21775;-87
2021/07/21 14:19:59;;;;;;;11.73;10.53;;;34.50;54.10;;;;;;6262501;22;20403;-87
2021/07/21 14:22:26;;;;;;;11.80;10.40;;;36.90;47.50;;;;;;6263365;22;20415;-88
2021/07/21 14:24:58;;;;;;;11.17;10.07;;;36.80;49.00;;;;;;6291444;22;20704;-88
2021/07/21 14:27:26;;;;;;;10.93;9.83;;;39.00;46.20;;;;;;6289921;22;20153;-88
2021/07/21 14:29:56;;;;;;;11.13;9.47;;;38.70;44.70;;;;;;6263764;22;20159;-88
2021/07/21 14:32:22;;;;;;;10.90;10.00;;;39.30;44.20;;;;;;6290768;22;20157;-87
2021/07/21 14:34:50;;;;;;;10.10;9.13;;;39.20;44.00;;;;;;6263595;22;20164;-87
2021/07/21 14:37:18;;;;;;;9.90;9.00;;;40.20;43.70;;;;;;6262474;22;20646;-88
2021/07/21 14:39:49;;;;;;;10.18;9.27;;;39.50;41.10;;;;;;6259574;22;20169;-88
2021/07/21 14:42:50;;;;;;;;;;;;;;;;;;;;;
2021/07/21 14:45:24;;;;;;;9.30;8.40;;;39.10;41.50;;;;;;6290385;22;20164;-88
2021/07/21 14:47:50;;;;;;;9.60;8.80;;;40.40;40.00;;;;;;6261006;22;20165;-88
2021/07/21 14:50:18;;;;;;;10.10;9.20;;;41.20;38.00;;;;;;6262348;22;20161;-88
2021/07/21 14:53:10;;;;;;;14.52;10.77;;;41.80;36.50;;;;;;6290500;22;20523;-88
2021/07/21 14:55:40;;;;;;;10.88;8.98;;;38.90;38.60;;;;;;6261568;22;20743;-88
2021/07/21 14:58:18;;;;;;;10.00;9.20;;;37.10;41.90;;;;;;6261893;22;20297;-88
2021/07/21 15:00:47;;;;;;;10.53;9.60;;;37.60;43.40;;;;;;6290416;22;20176;-87
2021/07/21 15:03:12;;;;;;;10.57;9.57;;;38.10;42.10;;;;;;6262397;22;20176;-87
2021/07/21 15:05:44;;;;;;;10.70;9.85;;;38.70;41.10;;;;;;6261427;22;20519;-88
2021/07/21 15:08:17;;;;;;;9.93;8.87;;;39.10;40.20;;;;;;6290414;22;20591;-88
2021/07/21 15:10:52;;;;;;;11.23;10.33;;;34.80;41.90;;;;;;6261178;22;20234;-88
2021/07/21 15:13:19;;;;;;;11.70;10.50;;;31.90;47.80;;;;;;6263357;22;20438;-87
2021/07/21 15:16:08;;;;;;;10.73;9.80;;;34.20;48.30;;;;;;6290253;22;20401;-88
2021/07/21 15:18:34;;;;;;;10.60;9.60;;;38.30;41.30;;;;;;6290218;22;20445;-87
2021/07/21 15:21:02;;;;;;;10.13;9.20;;;41.50;38.20;;;;;;6290923;22;20635;-86
2021/07/21 15:24:07;;;;;;;11.10;10.07;;;40.30;36.00;;;;;;6290900;22;20441;-88
2021/07/21 15:26:31;;;;;;;10.53;9.53;;;38.40;38.80;;;;;;6288825;22;20161;-86
2021/07/21 15:28:57;;;;;;;9.90;9.07;;;36.50;40.70;;;;;;6288890;22;20164;-87
2021/07/21 15:31:25;;;;;;;10.63;9.73;;;37.90;40.50;;;;;;6262985;22;20160;-86
2021/07/21 15:36:41;;;;;;;9.10;8.30;;;38.80;38.50;;;;;;6290079;22;20567;-87
2021/07/21 15:39:16;;;;;;;9.32;8.43;;;39.60;37.80;;;;;;6290081;22;20188;-87
2021/07/21 15:41:43;;;;;;;9.68;8.77;;;41.10;35.90;;;;;;6293317;22;20557;-89
2021/07/21 15:44:08;;;;;;;9.73;8.57;;;41.60;34.90;;;;;;6265497;22;20161;-87
2021/07/21 15:46:34;;;;;;;10.07;9.15;;;40.30;36.70;;;;;;6293735;22;20281;-87
2021/07/21 15:51:56;;;;;;;10.75;9.70;;;41.90;35.30;;;;;;6267290;22;20164;-87
2021/07/21 15:54:22;;;;;;;12.67;10.10;;;39.20;35.00;;;;;;6263084;22;20217;-87
2021/07/21 15:56:53;;;;;;;10.60;9.27;;;35.30;41.70;;;;;;6263305;22;20484;-87
2021/07/21 15:59:19;;;;;;;10.87;9.77;;;36.40;41.40;;;;;;6291544;22;20188;-87
2021/07/21 16:01:45;;;;;;;10.00;9.10;;;36.50;40.30;;;;;;6294763;22;20635;-86
2021/07/21 16:04:11;;;;;;;10.07;9.03;;;;;;;;;;6293623;22;20161;-86
2021/07/21 16:06:37;;;;;;;10.83;9.63;;;;;;;;;;6264803;22;20485;-87
2021/07/21 16:09:24;;;;;;;10.63;9.37;;;;;;;;;;6292258;22;20659;-87
2021/07/21 16:11:51;;;;;;;9.60;8.40;;;;;;;;;;6292164;22;20248;-87
2021/07/21 16:14:17;;;;;;;10.07;8.70;;;;;;;;;;6265662;22;20173;-87
2021/07/21 16:16:43;;;;;;;9.77;8.87;;;;;;;;;;6292024;22;20153;-87
2021/07/21 16:19:10;;;;;;;10.57;9.13;;;;;;;;;;6295095;22;21215;-87
2021/07/21 16:21:36;;;;;;;9.60;8.70;;;;;;;;;;6296535;22;20149;-86
2021/07/21 16:24:05;;;;;;;10.47;9.47;;;;;;;;;;6298981;22;20841;-87
2021/07/21 16:26:32;;;;;;;9.70;8.80;;;;;;;;;;6299019;22;20152;-87
2021/07/21 16:28:58;;;;;;;9.40;8.50;;;;;;;;;;6297828;22;20156;-87
2021/07/21 16:31:25;;;;;;;10.10;9.07;;;;;;;;;;6272175;22;20188;-87
2021/07/21 16:33:51;;;;;;;10.67;9.57;;;;;;;;;;6271556;22;20403;-87
2021/07/21 16:36:17;;;;;;;13.40;9.33;;;;;;;;;;6258547;22;20879;-88
2021/07/21 16:38:44;;;;;;;9.77;8.87;;;;;;;;;;6264099;22;20443;-88
2021/07/21 16:41:10;;;;;;;8.87;7.97;;;;;;;;;;6266335;22;21008;-88
2021/07/21 16:43:36;;;;;;;10.27;9.27;;;;;;;;;;6292904;22;20394;-87
2021/07/21 16:46:03;;;;;;;8.87;8.07;;;;;;;;;;6292744;22;20403;-88
2021/07/21 16:48:49;;;;;;;9.43;8.50;;;;;;;;;;6291642;22;20222;-87
2021/07/21 16:51:15;;;;;;;9.63;8.83;;;;;;;;;;6292061;22;20429;-87
2021/07/21 16:53:41;;;;;;;9.40;8.67;;;;;;;;;;6264336;22;20491;-87
2021/07/21 16:56:07;;;;;;;8.20;7.50;;;;;;;;;;6265457;22;20391;-87
2021/07/21 16:58:33;;;;;;;9.37;8.57;;;;;;;;;;6291046;22;20462;-87
2021/07/21 17:01:00;;;;;;;9.00;8.10;;;;;;;;;;6264685;22;20458;-88
2021/07/21 17:03:32;;;;;;;8.87;8.07;;;;;;;;;;6267759;22;20399;-88
2021/07/21 17:06:02;;;;;;;8.30;7.50;;;;;;;;;;6296643;22;20383;-89
2021/07/21 17:08:28;;;;;;;8.77;7.87;;;;;;;;;;6298606;22;20882;-88
2021/07/21 17:10:54;;;;;;;8.60;7.80;;;;;;;;;;6295507;22;20383;-88
2021/07/21 17:13:28;;;;;;;7.70;7.10;;;;;;;;;;6296148;22;20411;-88
2021/07/21 17:15:54;;;;;;;7.97;7.17;;;;;;;;;;6269464;22;20476;-88
2021/07/21 17:18:20;;;;;;;11.10;7.50;;;;;;;;;;6296977;22;20868;-88
2021/07/21 17:20:50;;;;;;;7.73;6.43;;;;;;;;;;6296587;22;20880;-88
2021/07/21 17:23:17;;;;;;;9.47;7.00;;;;;;;;;;6269451;22;20160;-88
2021/07/21 17:25:44;;;;;;;7.97;7.27;;;36.30;34.50;;;;;;6269305;22;20165;-89
2021/07/21 17:28:13;;;;;;;7.40;6.70;;;36.30;35.20;;;;;;6262821;22;20396;-88
2021/07/21 17:30:45;;;;;;;7.10;6.60;;;36.00;36.50;;;;;;6296430;22;20874;-88
2021/07/21 17:33:12;;;;;;;7.40;6.80;;;36.20;36.70;;;;;;6296469;22;20383;-88
2021/07/21 17:35:38;;;;;;;11.53;7.30;;;36.00;37.10;;;;;;6295551;22;20386;-88
2021/07/21 17:38:05;;;;;;;10.50;7.23;;;35.90;38.20;;;;;;6295645;22;20525;-88
2021/07/21 17:40:33;;;;;;;16.23;7.70;;;36.30;37.70;;;;;;6296175;22;20380;-88
2021/07/21 17:42:59;;;;;;;12.00;6.90;;;36.30;37.30;;;;;;6294546;22;20384;-88
2021/07/21 17:45:27;;;;;;;7.80;7.00;;;36.10;37.30;;;;;;6268329;22;20403;-88
2021/07/21 17:47:53;;;;;;;13.90;6.97;;;35.70;38.10;;;;;;6294666;22;20441;-88
2021/07/21 17:50:21;;;;;;;7.63;7.00;;;35.60;38.00;;;;;;6295595;22;20387;-88
2021/07/21 17:52:46;;;;;;;8.87;7.93;;;35.30;38.30;;;;;;6295236;22;20181;-88
2021/07/21 17:55:13;;;;;;;9.07;7.17;;;35.50;38.20;;;;;;6296555;22;20390;-88
2021/07/21 17:57:39;;;;;;;8.70;8.00;;;35.00;39.00;;;;;;6266771;22;20361;-88
2021/07/21 18:00:06;;;;;;;11.57;7.63;;;34.80;40.20;;;;;;6295810;22;22758;-88
2021/07/21 18:02:32;;;;;;;14.57;7.47;;;34.00;41.80;;;;;;6296940;22;20165;-88
2021/07/21 18:04:57;;;;;;;8.63;7.67;;;33.50;41.30;;;;;;6268953;22;20398;-88
2021/07/21 18:07:23;;;;;;;9.90;7.53;;;32.50;42.10;;;;;;6295321;22;20362;-88
2021/07/21 18:09:49;;;;;;;8.40;7.60;;;31.90;43.80;;;;;;6296745;22;20154;-88
2021/07/21 18:12:15;;;;;;;8.47;7.67;;;31.20;45.40;;;;;;6295897;22;20481;-88
2021/07/21 18:14:44;;;;;;;8.07;7.27;;;30.40;46.70;;;;;;6268461;22;20829;-88
2021/07/21 18:17:11;;;;;;;8.47;7.67;;;29.40;48.60;;;;;;6295553;22;20412;-88
2021/07/21 18:19:37;;;;;;;8.30;7.47;;;28.40;51.70;;;;;;6295747;22;20392;-88
2021/07/21 18:22:04;;;;;;;9.00;7.57;;;27.50;53.00;;;;;;6295776;22;20376;-88
2021/07/21 18:24:31;;;;;;;8.03;7.30;;;27.00;54.80;;;;;;6295875;22;20782;-88
2021/07/21 18:26:56;;;;;;;9.30;8.40;;;26.60;54.80;;;;;;6267955;22;20471;-88
2021/07/21 18:29:38;;;;;;;8.70;7.80;;;26.10;56.30;;;;;;6295431;22;20380;-88
2021/07/21 18:32:04;;;;;;;11.80;8.10;;;25.60;57.30;;;;;;6296400;22;20691;-88
2021/07/21 18:34:29;;;;;;;11.03;8.20;;;25.30;58.50;;;;;;6268417;22;20844;-88
2021/07/21 18:36:55;;;;;;;8.63;7.23;;;24.90;59.30;;;;;;6297496;22;20388;-88
2021/07/21 18:39:21;;;;;;;7.77;7.07;;;24.70;59.50;;;;;;6268830;22;20193;-88
2021/07/21 18:41:47;;;;;;;8.97;8.07;;;24.50;60.70;;;;;;6296902;22;20165;-88
2021/07/21 18:44:13;;;;;;;8.77;7.10;;;24.20;62.60;;;;;;6268617;22;20483;-88
2021/07/21 18:46:38;;;;;;;9.00;8.13;;;23.90;64.40;;;;;;6268305;22;20189;-88
2021/07/21 18:49:19;;;;;;;8.17;7.47;;;23.70;67.00;;;;;;6295279;22;20150;-88
2021/07/21 18:51:45;;;;;;;9.97;8.07;;;23.50;69.40;;;;;;6294502;22;20261;-88
2021/07/21 18:54:14;;;;;;;9.10;8.00;;;23.20;72.00;;;;;;6266841;22;20396;-88
2021/07/21 18:56:39;;;;;;;9.80;7.33;;;22.90;73.40;;;;;;6296598;22;20376;-88
2021/07/21 18:59:05;;;;;;;18.13;8.90;;;22.80;75.20;;;;;;6265117;22;20808;-88
2021/07/21 19:01:32;;;;;;;46.47;10.90;;;22.50;77.50;;;;;;6267476;22;20177;-88
2021/07/21 19:04:00;;;;;;;23.20;9.07;;;22.40;78.90;;;;;;6268313;22;20404;-87
2021/07/21 19:06:25;;;;;;;11.53;8.13;;;22.10;83.10;;;;;;6267674;22;20478;-87
2021/07/21 19:08:51;;;;;;;9.90;8.90;;;21.90;85.10;;;;;;6294787;22;20419;-87
2021/07/21 19:11:17;;;;;;;9.03;7.87;;;21.60;89.10;;;;;;6294377;22;20153;-88
2021/07/21 19:13:43;;;;;;;8.43;7.13;;;21.30;91.10;;;;;;6294924;22;20166;-87
2021/07/21 19:16:11;;;;;;;8.80;7.90;;;21.20;91.70;;;;;;6268004;22;20555;-88
2021/07/21 19:18:37;;;;;;;11.03;8.10;;;21.00;93.60;;;;;;6293670;22;20431;-88
2021/07/21 19:21:08;;;;;;;11.83;7.80;;;21.00;93.50;;;;;;6291572;22;20820;-87
2021/07/21 19:23:34;;;;;;;23.53;8.47;;;21.00;92.30;;;;;;6264057;22;20504;-87
2021/07/21 19:26:03;;;;;;;21.83;7.90;;;21.00;90.70;;;;;;6263890;22;20384;-87
2021/07/21 19:28:31;;;;;;;20.23;8.73;;;21.20;90.50;;;;;;6264401;22;20407;-86
2021/07/21 19:30:57;;;;;;;31.50;9.27;;;21.30;90.00;;;;;;6292543;22;20415;-86
2021/07/21 19:33:27;;;;;;;14.97;8.23;;;21.30;91.50;;;;;;6265872;22;20408;-88
2021/07/21 19:35:52;;;;;;;14.50;8.13;;;21.20;92.30;;;;;;6293531;22;20757;-88
2021/07/21 19:41:12;;;;;;;13.53;7.47;;;21.00;93.90;;;;;;6291984;22;20228;-91
2021/07/21 19:43:40;;;;;;;16.43;8.30;;;20.80;96.00;;;;;;6266172;22;20420;-91
2021/07/21 19:46:11;;;;;;;12.97;8.23;;;20.50;97.00;;;;;;6265526;22;20227;-92
2021/07/21 19:48:41;;;;;;;13.50;7.67;;;20.40;98.00;;;;;;6266878;22;20383;-91
2021/07/21 19:51:08;;;;;;;12.03;7.40;;;20.20;99.10;;;;;;6264899;22;20389;-91
2021/07/21 19:53:47;;;;;;;8.93;7.80;;;20.00;99.90;;;;;;6266128;22;20390;-94
2021/07/21 19:56:17;;;;;;;9.97;7.93;;;19.90;99.90;;;;;;6294596;22;20380;-91
2021/07/21 19:58:44;;;;;;;9.43;8.40;;;19.80;99.90;;;;;;6267648;22;20489;-91
2021/07/21 20:01:12;;;;;;;8.73;7.57;;;19.60;99.90;;;;;;6271985;22;20478;-89
2021/07/21 20:03:38;;;;;;;9.53;8.13;;;19.60;99.90;;;;;;6295673;22;20730;-86
2021/07/21 20:06:04;;;;;;;14.00;7.80;;;19.50;99.90;;;;;;6294910;22;20399;-84
2021/07/21 20:08:29;;;;;;;8.40;7.60;;;19.40;99.90;;;;;;6261133;22;20169;-84
2021/07/21 20:11:02;;;;;;;7.83;7.13;;;19.40;99.90;;;;;;6266234;22;20396;-85
2021/07/21 20:13:32;;;;;;;11.37;7.30;;;19.60;99.90;;;;;;6264534;22;20218;-85
2021/07/21 20:15:58;;;;;;;8.03;7.23;;;19.50;99.90;;;;;;6264466;22;20393;-85
2021/07/21 20:18:23;;;;;;;8.53;7.47;;;19.40;99.90;;;;;;6293962;22;20770;-85
2021/07/21 20:20:49;;;;;;;8.73;7.07;;;19.30;99.90;;;;;;6266326;22;20813;-85
2021/07/21 20:23:16;;;;;;;8.10;7.00;;;19.20;99.90;;;;;;6266449;22;20165;-85
2021/07/21 20:25:43;;;;;;;12.00;8.30;;;19.30;99.90;;;;;;6240480;22;20239;-85
2021/07/21 20:28:12;;;;;;;10.23;7.87;;;19.20;99.90;;;;;;6267745;22;20715;-85
2021/07/21 20:30:37;;;;;;;8.43;7.57;;;19.20;99.90;;;;;;6243839;22;20392;-86
2021/07/21 20:33:14;;;;;;;9.17;6.70;;;19.20;99.90;;;;;;6268815;22;20724;-85
2021/07/21 20:35:57;;;;;;;8.23;7.43;;;19.10;99.90;;;;;;6294974;22;20276;-87
2021/07/21 20:38:23;;;;;;;9.17;7.30;;;19.00;99.90;;;;;;6295844;22;20489;-87
2021/07/21 20:40:50;;;;;;;7.83;6.83;;;18.90;99.90;;;;;;6297193;22;20889;-87
2021/07/21 20:43:16;;;;;;;8.97;7.30;;;18.80;99.90;;;;;;6267854;22;20562;-86
2021/07/21 20:45:42;;;;;;;8.00;7.20;;;18.80;99.90;;;;;;6269041;22;20896;-86